Bayway, New Jersey
Current Conditions -  °F | °C
As of 9:55 PM on Wednesday 26 Nov 2014 (Local Time) from KLDJ Reporting Station
Drizzle Drizzle  
Wind Chill: 32°   Ceiling: 3700
Heat Index: 39°   Visibility: 10mi
Dew Point: 37°   Wind: 13mph
Humidity: 90%   Direction: 340°NNW
Pressure: 29.84"   Gusts: 20mph
Location:  40.6531°N, 74.2169°W
Report Text: KLDJ 270255Z AUTO 34011G17KT 10SM -DZ BKN037 OVC043 04/03 A2984 RMK AO2 60004 T00410026
Loading
Personal Weather Stations






























Interactive Weather Map New forecast layout! Learn more

10-Day Weather Forecast

Advertisements
Track Severe Weather on mobile